Tangerine, Florida
Current Conditions -  °F | °C
As of 4:53 PM on Thursday 18 Dec 2014 (Local Time) from KLEE Reporting Station
Clear Clear  
Wind Chill: 65°   Ceiling: Unl
Heat Index: 65°   Visibility: 10mi
Dew Point: 49°   Wind: 0mph
Humidity: 56%   Direction: NA
Pressure: 30.11"   Gusts: NA
Location:  28.76°N, 81.63°W
Report Text: KLEE 182153Z 00000KT 10SM CLR 18/09 A3011 RMK AO2 SLP195 T01830094
Loading
Personal Weather Stations






























Interactive Weather Map New forecast layout! Learn more

10-Day Weather Forecast

Advertisements
Track Severe Weather on mobile